sensor_id;sensor_type;location;lat;lon;timestamp;P1;durP1;ratioP1;P2;durP2;ratioP2
34960;SDS011;30789;52.030;7.110;2023-02-10T00:00:21;38.67;;;18.92;;
34960;SDS011;30789;52.030;7.110;2023-02-10T00:02:48;35.72;;;19.20;;
34960;SDS011;30789;52.030;7.110;2023-02-10T00:05:14;36.30;;;18.35;;
34960;SDS011;30789;52.030;7.110;2023-02-10T00:07:40;32.75;;;17.98;;
34960;SDS011;30789;52.030;7.110;2023-02-10T00:10:07;38.90;;;18.73;;
34960;SDS011;30789;52.030;7.110;2023-02-10T00:12:35;36.67;;;18.83;;
34960;SDS011;30789;52.030;7.110;2023-02-10T00:15:03;35.47;;;17.98;;
34960;SDS011;30789;52.030;7.110;2023-02-10T00:17:29;35.42;;;18.15;;
34960;SDS011;30789;52.030;7.110;2023-02-10T00:19:55;34.55;;;18.75;;
34960;SDS011;30789;52.030;7.110;2023-02-10T00:22:21;40.35;;;19.10;;
34960;SDS011;30789;52.030;7.110;2023-02-10T00:24:48;34.58;;;18.15;;
34960;SDS011;30789;52.030;7.110;2023-02-10T00:27:14;34.40;;;18.33;;
34960;SDS011;30789;52.030;7.110;2023-02-10T00:29:40;34.05;;;18.38;;
34960;SDS011;30789;52.030;7.110;2023-02-10T00:32:08;32.72;;;17.77;;
34960;SDS011;30789;52.030;7.110;2023-02-10T00:34:35;35.10;;;19.05;;
34960;SDS011;30789;52.030;7.110;2023-02-10T00:37:02;34.08;;;17.90;;
34960;SDS011;30789;52.030;7.110;2023-02-10T00:39:28;39.58;;;18.77;;
34960;SDS011;30789;52.030;7.110;2023-02-10T00:41:54;35.03;;;19.00;;
34960;SDS011;30789;52.030;7.110;2023-02-10T00:44:20;37.30;;;19.58;;
34960;SDS011;30789;52.030;7.110;2023-02-10T00:46:47;33.50;;;18.58;;
34960;SDS011;30789;52.030;7.110;2023-02-10T00:49:14;33.88;;;19.35;;
34960;SDS011;30789;52.030;7.110;2023-02-10T00:51:41;32.90;;;18.60;;
34960;SDS011;30789;52.030;7.110;2023-02-10T00:54:07;35.40;;;18.48;;
34960;SDS011;30789;52.030;7.110;2023-02-10T00:56:33;32.60;;;19.35;;
34960;SDS011;30789;52.030;7.110;2023-02-10T00:59:00;35.13;;;18.35;;
34960;SDS011;30789;52.030;7.110;2023-02-10T01:01:26;38.88;;;18.70;;
34960;SDS011;30789;52.030;7.110;2023-02-10T01:03:52;35.42;;;19.23;;
34960;SDS011;30789;52.030;7.110;2023-02-10T01:06:20;35.58;;;18.88;;
34960;SDS011;30789;52.030;7.110;2023-02-10T01:08:46;31.60;;;17.95;;
34960;SDS011;30789;52.030;7.110;2023-02-10T01:11:12;38.28;;;18.20;;
34960;SDS011;30789;52.030;7.110;2023-02-10T01:13:39;31.30;;;18.15;;
34960;SDS011;30789;52.030;7.110;2023-02-10T01:16:06;32.95;;;18.27;;
34960;SDS011;30789;52.030;7.110;2023-02-10T01:18:34;37.45;;;20.58;;
34960;SDS011;30789;52.030;7.110;2023-02-10T01:21:06;33.58;;;18.52;;
34960;SDS011;30789;52.030;7.110;2023-02-10T01:23:34;31.13;;;18.52;;
34960;SDS011;30789;52.030;7.110;2023-02-10T01:26:01;32.95;;;17.80;;
34960;SDS011;30789;52.030;7.110;2023-02-10T01:28:27;32.90;;;16.92;;
34960;SDS011;30789;52.030;7.110;2023-02-10T01:30:53;33.88;;;18.80;;
34960;SDS011;30789;52.030;7.110;2023-02-10T01:33:19;30.67;;;18.67;;
34960;SDS011;30789;52.030;7.110;2023-02-10T01:35:46;34.63;;;19.95;;
34960;SDS011;30789;52.030;7.110;2023-02-10T01:38:12;34.80;;;19.40;;
34960;SDS011;30789;52.030;7.110;2023-02-10T01:40:39;34.38;;;19.10;;
34960;SDS011;30789;52.030;7.110;2023-02-10T01:43:09;37.13;;;18.27;;
34960;SDS011;30789;52.030;7.110;2023-02-10T01:45:38;31.23;;;17.65;;
34960;SDS011;30789;52.030;7.110;2023-02-10T01:48:05;38.22;;;18.77;;
34960;SDS011;30789;52.030;7.110;2023-02-10T01:50:34;36.42;;;18.13;;
34960;SDS011;30789;52.030;7.110;2023-02-10T01:53:02;36.10;;;18.67;;
34960;SDS011;30789;52.030;7.110;2023-02-10T01:55:30;35.67;;;18.58;;
34960;SDS011;30789;52.030;7.110;2023-02-10T01:57:59;33.83;;;18.08;;
34960;SDS011;30789;52.030;7.110;2023-02-10T02:00:26;35.58;;;20.30;;
34960;SDS011;30789;52.030;7.110;2023-02-10T02:02:52;33.38;;;19.02;;
34960;SDS011;30789;52.030;7.110;2023-02-10T02:05:20;36.20;;;18.30;;
34960;SDS011;30789;52.030;7.110;2023-02-10T02:07:47;35.00;;;18.90;;
34960;SDS011;30789;52.030;7.110;2023-02-10T02:10:14;37.83;;;18.63;;
34960;SDS011;30789;52.030;7.110;2023-02-10T02:12:41;40.42;;;19.42;;
34960;SDS011;30789;52.030;7.110;2023-02-10T02:15:12;37.95;;;20.05;;
34960;SDS011;30789;52.030;7.110;2023-02-10T02:17:42;40.17;;;19.15;;
34960;SDS011;30789;52.030;7.110;2023-02-10T02:22:59;32.15;;;17.92;;
34960;SDS011;30789;52.030;7.110;2023-02-10T02:25:33;36.67;;;18.98;;
34960;SDS011;30789;52.030;7.110;2023-02-10T02:28:13;39.47;;;20.20;;
34960;SDS011;30789;52.030;7.110;2023-02-10T02:30:46;38.88;;;19.35;;
34960;SDS011;30789;52.030;7.110;2023-02-10T02:33:19;32.28;;;18.60;;
34960;SDS011;30789;52.030;7.110;2023-02-10T02:35:48;33.30;;;18.10;;
34960;SDS011;30789;52.030;7.110;2023-02-10T02:38:17;28.42;;;18.48;;
34960;SDS011;30789;52.030;7.110;2023-02-10T02:40:44;39.15;;;21.85;;
34960;SDS011;30789;52.030;7.110;2023-02-10T02:43:10;41.63;;;19.42;;
34960;SDS011;30789;52.030;7.110;2023-02-10T02:45:39;36.50;;;20.52;;
34960;SDS011;30789;52.030;7.110;2023-02-10T02:48:11;38.40;;;19.40;;
34960;SDS011;30789;52.030;7.110;2023-02-10T02:50:42;37.72;;;20.27;;
34960;SDS011;30789;52.030;7.110;2023-02-10T02:53:17;40.58;;;19.60;;
34960;SDS011;30789;52.030;7.110;2023-02-10T02:55:48;38.72;;;20.60;;
34960;SDS011;30789;52.030;7.110;2023-02-10T02:58:15;41.03;;;22.60;;
34960;SDS011;30789;52.030;7.110;2023-02-10T03:00:44;36.00;;;19.92;;
34960;SDS011;30789;52.030;7.110;2023-02-10T03:03:11;35.90;;;19.30;;
34960;SDS011;30789;52.030;7.110;2023-02-10T03:05:38;34.30;;;20.20;;
34960;SDS011;30789;52.030;7.110;2023-02-10T03:08:05;38.03;;;20.30;;
34960;SDS011;30789;52.030;7.110;2023-02-10T03:10:32;38.03;;;21.15;;
34960;SDS011;30789;52.030;7.110;2023-02-10T03:12:58;44.67;;;21.42;;
34960;SDS011;30789;52.030;7.110;2023-02-10T03:15:24;38.55;;;21.42;;
34960;SDS011;30789;52.030;7.110;2023-02-10T03:17:51;40.92;;;20.40;;
34960;SDS011;30789;52.030;7.110;2023-02-10T03:20:17;38.80;;;19.30;;
34960;SDS011;30789;52.030;7.110;2023-02-10T03:22:43;37.55;;;21.63;;
34960;SDS011;30789;52.030;7.110;2023-02-10T03:25:11;39.97;;;21.40;;
34960;SDS011;30789;52.030;7.110;2023-02-10T03:27:37;36.95;;;20.23;;
34960;SDS011;30789;52.030;7.110;2023-02-10T03:30:04;40.55;;;22.65;;
34960;SDS011;30789;52.030;7.110;2023-02-10T03:32:30;41.78;;;20.90;;
34960;SDS011;30789;52.030;7.110;2023-02-10T03:34:56;42.47;;;21.85;;
34960;SDS011;30789;52.030;7.110;2023-02-10T03:37:23;42.42;;;22.52;;
34960;SDS011;30789;52.030;7.110;2023-02-10T03:39:49;47.20;;;23.17;;
34960;SDS011;30789;52.030;7.110;2023-02-10T03:42:16;49.33;;;22.83;;
34960;SDS011;30789;52.030;7.110;2023-02-10T03:44:43;42.88;;;21.67;;
34960;SDS011;30789;52.030;7.110;2023-02-10T03:47:09;45.88;;;23.52;;
34960;SDS011;30789;52.030;7.110;2023-02-10T03:49:35;47.78;;;23.63;;
34960;SDS011;30789;52.030;7.110;2023-02-10T03:52:01;58.92;;;25.85;;
34960;SDS011;30789;52.030;7.110;2023-02-10T03:54:28;61.40;;;26.73;;
34960;SDS011;30789;52.030;7.110;2023-02-10T03:56:56;54.40;;;24.38;;
34960;SDS011;30789;52.030;7.110;2023-02-10T03:59:23;53.80;;;24.40;;
34960;SDS011;30789;52.030;7.110;2023-02-10T04:01:50;51.22;;;25.45;;
34960;SDS011;30789;52.030;7.110;2023-02-10T04:04:16;48.55;;;23.17;;
34960;SDS011;30789;52.030;7.110;2023-02-10T04:06:42;46.45;;;22.10;;
34960;SDS011;30789;52.030;7.110;2023-02-10T04:09:09;43.40;;;22.20;;
34960;SDS011;30789;52.030;7.110;2023-02-10T04:11:35;52.08;;;23.88;;
34960;SDS011;30789;52.030;7.110;2023-02-10T04:14:01;47.08;;;22.23;;
34960;SDS011;30789;52.030;7.110;2023-02-10T04:16:29;50.65;;;24.35;;
34960;SDS011;30789;52.030;7.110;2023-02-10T04:18:57;51.42;;;24.58;;
34960;SDS011;30789;52.030;7.110;2023-02-10T04:21:23;53.72;;;24.50;;
34960;SDS011;30789;52.030;7.110;2023-02-10T04:23:50;44.92;;;23.05;;
34960;SDS011;30789;52.030;7.110;2023-02-10T04:26:16;45.58;;;22.95;;
34960;SDS011;30789;52.030;7.110;2023-02-10T04:28:42;50.60;;;24.27;;
34960;SDS011;30789;52.030;7.110;2023-02-10T04:31:08;50.05;;;25.85;;
34960;SDS011;30789;52.030;7.110;2023-02-10T04:33:36;54.08;;;24.63;;
34960;SDS011;30789;52.030;7.110;2023-02-10T04:36:03;47.60;;;23.08;;
34960;SDS011;30789;52.030;7.110;2023-02-10T04:38:29;42.92;;;22.42;;
34960;SDS011;30789;52.030;7.110;2023-02-10T04:40:56;44.85;;;24.48;;
34960;SDS011;30789;52.030;7.110;2023-02-10T04:43:22;52.17;;;24.95;;
34960;SDS011;30789;52.030;7.110;2023-02-10T04:45:48;53.63;;;24.60;;
34960;SDS011;30789;52.030;7.110;2023-02-10T04:48:14;53.65;;;25.33;;
34960;SDS011;30789;52.030;7.110;2023-02-10T04:50:42;46.90;;;24.98;;
34960;SDS011;30789;52.030;7.110;2023-02-10T04:53:08;49.70;;;24.23;;
34960;SDS011;30789;52.030;7.110;2023-02-10T04:55:35;49.08;;;23.05;;
34960;SDS011;30789;52.030;7.110;2023-02-10T04:58:01;46.25;;;23.38;;
34960;SDS011;30789;52.030;7.110;2023-02-10T05:00:27;49.08;;;25.13;;
34960;SDS011;30789;52.030;7.110;2023-02-10T05:02:53;57.35;;;28.02;;
34960;SDS011;30789;52.030;7.110;2023-02-10T05:05:20;53.08;;;25.13;;
34960;SDS011;30789;52.030;7.110;2023-02-10T05:07:50;51.10;;;25.00;;
34960;SDS011;30789;52.030;7.110;2023-02-10T05:10:16;46.15;;;24.08;;
34960;SDS011;30789;52.030;7.110;2023-02-10T05:12:43;56.85;;;26.52;;
34960;SDS011;30789;52.030;7.110;2023-02-10T05:15:09;53.53;;;27.00;;
34960;SDS011;30789;52.030;7.110;2023-02-10T05:17:38;49.75;;;26.40;;
34960;SDS011;30789;52.030;7.110;2023-02-10T05:20:04;63.92;;;26.58;;
34960;SDS011;30789;52.030;7.110;2023-02-10T05:22:31;55.65;;;28.27;;
34960;SDS011;30789;52.030;7.110;2023-02-10T05:25:01;51.40;;;24.65;;
34960;SDS011;30789;52.030;7.110;2023-02-10T05:27:27;54.17;;;27.38;;
34960;SDS011;30789;52.030;7.110;2023-02-10T05:29:54;59.03;;;26.35;;
34960;SDS011;30789;52.030;7.110;2023-02-10T05:32:20;65.57;;;28.55;;
34960;SDS011;30789;52.030;7.110;2023-02-10T05:34:46;48.42;;;25.90;;
34960;SDS011;30789;52.030;7.110;2023-02-10T05:37:12;49.10;;;25.50;;
34960;SDS011;30789;52.030;7.110;2023-02-10T05:39:39;61.63;;;27.63;;
34960;SDS011;30789;52.030;7.110;2023-02-10T05:42:06;64.38;;;27.90;;
34960;SDS011;30789;52.030;7.110;2023-02-10T05:44:32;54.30;;;26.33;;
34960;SDS011;30789;52.030;7.110;2023-02-10T05:46:59;53.53;;;25.02;;
34960;SDS011;30789;52.030;7.110;2023-02-10T05:49:25;53.10;;;26.95;;
34960;SDS011;30789;52.030;7.110;2023-02-10T05:51:51;60.88;;;27.10;;
34960;SDS011;30789;52.030;7.110;2023-02-10T05:54:18;51.97;;;26.17;;
34960;SDS011;30789;52.030;7.110;2023-02-10T05:56:44;52.35;;;26.63;;
34960;SDS011;30789;52.030;7.110;2023-02-10T05:59:11;55.70;;;25.58;;
34960;SDS011;30789;52.030;7.110;2023-02-10T06:01:39;50.28;;;26.92;;
34960;SDS011;30789;52.030;7.110;2023-02-10T06:04:05;50.53;;;25.27;;
34960;SDS011;30789;52.030;7.110;2023-02-10T06:06:32;54.63;;;27.38;;
34960;SDS011;30789;52.030;7.110;2023-02-10T06:08:58;50.17;;;24.98;;
34960;SDS011;30789;52.030;7.110;2023-02-10T06:11:24;43.05;;;24.65;;
34960;SDS011;30789;52.030;7.110;2023-02-10T06:13:50;49.88;;;25.13;;
34960;SDS011;30789;52.030;7.110;2023-02-10T06:16:18;47.03;;;24.23;;
34960;SDS011;30789;52.030;7.110;2023-02-10T06:18:44;53.13;;;25.65;;
34960;SDS011;30789;52.030;7.110;2023-02-10T06:21:12;50.83;;;24.90;;
34960;SDS011;30789;52.030;7.110;2023-02-10T06:23:39;48.00;;;25.13;;
34960;SDS011;30789;52.030;7.110;2023-02-10T06:26:05;47.28;;;24.25;;
34960;SDS011;30789;52.030;7.110;2023-02-10T06:28:31;52.25;;;26.67;;
34960;SDS011;30789;52.030;7.110;2023-02-10T06:30:57;55.38;;;25.88;;
34960;SDS011;30789;52.030;7.110;2023-02-10T06:33:25;50.58;;;24.25;;
34960;SDS011;30789;52.030;7.110;2023-02-10T06:35:51;50.15;;;25.77;;
34960;SDS011;30789;52.030;7.110;2023-02-10T06:38:17;54.42;;;27.02;;
34960;SDS011;30789;52.030;7.110;2023-02-10T06:40:44;58.08;;;26.67;;
34960;SDS011;30789;52.030;7.110;2023-02-10T06:43:10;53.60;;;26.15;;
34960;SDS011;30789;52.030;7.110;2023-02-10T06:45:36;55.08;;;26.20;;
34960;SDS011;30789;52.030;7.110;2023-02-10T06:48:03;59.65;;;28.65;;
34960;SDS011;30789;52.030;7.110;2023-02-10T06:50:31;57.53;;;28.20;;
34960;SDS011;30789;52.030;7.110;2023-02-10T06:52:57;60.20;;;30.85;;
34960;SDS011;30789;52.030;7.110;2023-02-10T06:55:23;55.45;;;27.15;;
34960;SDS011;30789;52.030;7.110;2023-02-10T06:57:49;52.90;;;27.13;;
34960;SDS011;30789;52.030;7.110;2023-02-10T07:00:16;63.22;;;27.88;;
34960;SDS011;30789;52.030;7.110;2023-02-10T07:02:42;58.47;;;27.80;;
34960;SDS011;30789;52.030;7.110;2023-02-10T07:05:09;55.42;;;28.80;;
34960;SDS011;30789;52.030;7.110;2023-02-10T07:07:37;65.40;;;29.40;;
34960;SDS011;30789;52.030;7.110;2023-02-10T07:10:04;54.35;;;28.20;;
34960;SDS011;30789;52.030;7.110;2023-02-10T07:12:30;55.25;;;28.13;;
34960;SDS011;30789;52.030;7.110;2023-02-10T07:14:57;56.88;;;27.33;;
34960;SDS011;30789;52.030;7.110;2023-02-10T07:17:23;55.50;;;28.83;;
34960;SDS011;30789;52.030;7.110;2023-02-10T07:19:49;66.15;;;30.73;;
34960;SDS011;30789;52.030;7.110;2023-02-10T07:22:15;58.28;;;27.52;;
34960;SDS011;30789;52.030;7.110;2023-02-10T07:24:43;59.03;;;27.92;;
34960;SDS011;30789;52.030;7.110;2023-02-10T07:27:09;56.65;;;28.08;;
34960;SDS011;30789;52.030;7.110;2023-02-10T07:29:36;57.10;;;27.98;;
34960;SDS011;30789;52.030;7.110;2023-02-10T07:32:02;62.90;;;30.75;;
34960;SDS011;30789;52.030;7.110;2023-02-10T07:34:28;59.30;;;29.38;;
34960;SDS011;30789;52.030;7.110;2023-02-10T07:36:56;62.65;;;31.25;;
34960;SDS011;30789;52.030;7.110;2023-02-10T07:39:22;55.42;;;29.13;;
34960;SDS011;30789;52.030;7.110;2023-02-10T07:41:50;64.75;;;30.25;;
34960;SDS011;30789;52.030;7.110;2023-02-10T07:44:17;70.90;;;29.10;;
34960;SDS011;30789;52.030;7.110;2023-02-10T07:46:44;58.35;;;28.83;;
34960;SDS011;30789;52.030;7.110;2023-02-10T07:49:10;62.65;;;31.17;;
34960;SDS011;30789;52.030;7.110;2023-02-10T07:51:36;66.70;;;31.08;;
34960;SDS011;30789;52.030;7.110;2023-02-10T07:54:02;59.45;;;30.52;;
34960;SDS011;30789;52.030;7.110;2023-02-10T07:56:30;65.80;;;27.50;;
34960;SDS011;30789;52.030;7.110;2023-02-10T07:58:57;68.75;;;31.10;;
34960;SDS011;30789;52.030;7.110;2023-02-10T08:01:24;71.28;;;30.33;;
34960;SDS011;30789;52.030;7.110;2023-02-10T08:03:50;71.72;;;31.48;;
34960;SDS011;30789;52.030;7.110;2023-02-10T08:06:18;63.80;;;30.27;;
34960;SDS011;30789;52.030;7.110;2023-02-10T08:08:44;72.20;;;30.88;;
34960;SDS011;30789;52.030;7.110;2023-02-10T08:11:11;69.38;;;31.10;;
34960;SDS011;30789;52.030;7.110;2023-02-10T08:13:37;63.50;;;30.45;;
34960;SDS011;30789;52.030;7.110;2023-02-10T08:16:05;66.97;;;31.73;;
34960;SDS011;30789;52.030;7.110;2023-02-10T08:18:33;63.28;;;28.02;;
34960;SDS011;30789;52.030;7.110;2023-02-10T08:21:00;62.20;;;28.88;;
34960;SDS011;30789;52.030;7.110;2023-02-10T08:23:26;65.20;;;28.63;;
34960;SDS011;30789;52.030;7.110;2023-02-10T08:25:53;64.57;;;28.25;;
34960;SDS011;30789;52.030;7.110;2023-02-10T08:28:19;73.70;;;32.72;;
34960;SDS011;30789;52.030;7.110;2023-02-10T08:30:45;66.05;;;28.45;;
34960;SDS011;30789;52.030;7.110;2023-02-10T08:33:13;63.85;;;30.33;;
34960;SDS011;30789;52.030;7.110;2023-02-10T08:35:39;63.80;;;28.05;;
34960;SDS011;30789;52.030;7.110;2023-02-10T08:38:06;65.55;;;30.00;;
34960;SDS011;30789;52.030;7.110;2023-02-10T08:40:34;70.25;;;29.80;;
34960;SDS011;30789;52.030;7.110;2023-02-10T08:43:00;60.75;;;27.10;;
34960;SDS011;30789;52.030;7.110;2023-02-10T08:45:27;64.22;;;28.08;;
34960;SDS011;30789;52.030;7.110;2023-02-10T08:47:53;63.25;;;28.73;;
34960;SDS011;30789;52.030;7.110;2023-02-10T08:50:21;73.00;;;29.23;;
34960;SDS011;30789;52.030;7.110;2023-02-10T08:52:47;65.25;;;28.85;;
34960;SDS011;30789;52.030;7.110;2023-02-10T08:55:13;62.33;;;29.50;;
34960;SDS011;30789;52.030;7.110;2023-02-10T08:57:40;57.83;;;27.85;;
34960;SDS011;30789;52.030;7.110;2023-02-10T09:00:06;78.38;;;30.92;;
34960;SDS011;30789;52.030;7.110;2023-02-10T09:02:33;73.97;;;30.92;;
34960;SDS011;30789;52.030;7.110;2023-02-10T09:04:59;74.75;;;31.95;;
34960;SDS011;30789;52.030;7.110;2023-02-10T09:07:27;71.75;;;30.45;;
34960;SDS011;30789;52.030;7.110;2023-02-10T09:09:53;74.15;;;31.27;;
34960;SDS011;30789;52.030;7.110;2023-02-10T09:12:19;74.82;;;32.42;;
34960;SDS011;30789;52.030;7.110;2023-02-10T09:14:45;70.35;;;31.10;;
34960;SDS011;30789;52.030;7.110;2023-02-10T09:17:12;76.60;;;31.30;;
34960;SDS011;30789;52.030;7.110;2023-02-10T09:19:38;75.05;;;31.67;;
34960;SDS011;30789;52.030;7.110;2023-02-10T09:22:05;74.97;;;30.73;;
34960;SDS011;30789;52.030;7.110;2023-02-10T09:24:33;72.82;;;32.25;;
34960;SDS011;30789;52.030;7.110;2023-02-10T09:27:00;71.88;;;32.33;;
34960;SDS011;30789;52.030;7.110;2023-02-10T09:29:26;78.03;;;31.60;;
34960;SDS011;30789;52.030;7.110;2023-02-10T09:31:52;84.90;;;33.50;;
34960;SDS011;30789;52.030;7.110;2023-02-10T09:34:19;72.65;;;33.38;;
34960;SDS011;30789;52.030;7.110;2023-02-10T09:36:45;85.60;;;32.28;;
34960;SDS011;30789;52.030;7.110;2023-02-10T09:39:11;87.72;;;35.60;;
34960;SDS011;30789;52.030;7.110;2023-02-10T09:41:44;77.43;;;33.83;;
34960;SDS011;30789;52.030;7.110;2023-02-10T09:44:13;75.57;;;33.85;;
34960;SDS011;30789;52.030;7.110;2023-02-10T09:46:44;85.25;;;36.83;;
34960;SDS011;30789;52.030;7.110;2023-02-10T09:49:15;83.68;;;34.55;;
34960;SDS011;30789;52.030;7.110;2023-02-10T09:51:47;71.80;;;33.63;;
34960;SDS011;30789;52.030;7.110;2023-02-10T09:54:17;84.03;;;32.83;;
34960;SDS011;30789;52.030;7.110;2023-02-10T09:56:46;77.57;;;33.85;;
34960;SDS011;30789;52.030;7.110;2023-02-10T09:59:13;81.68;;;35.72;;
34960;SDS011;30789;52.030;7.110;2023-02-10T10:01:41;78.70;;;34.45;;
34960;SDS011;30789;52.030;7.110;2023-02-10T10:04:10;73.15;;;35.63;;
34960;SDS011;30789;52.030;7.110;2023-02-10T10:06:38;82.25;;;34.53;;
34960;SDS011;30789;52.030;7.110;2023-02-10T10:09:09;81.10;;;35.97;;
34960;SDS011;30789;52.030;7.110;2023-02-10T10:11:40;78.53;;;36.45;;
34960;SDS011;30789;52.030;7.110;2023-02-10T10:14:13;69.70;;;34.20;;
34960;SDS011;30789;52.030;7.110;2023-02-10T10:16:48;82.32;;;35.33;;
34960;SDS011;30789;52.030;7.110;2023-02-10T10:19:21;81.82;;;36.75;;
34960;SDS011;30789;52.030;7.110;2023-02-10T10:21:51;83.10;;;37.28;;
34960;SDS011;30789;52.030;7.110;2023-02-10T10:24:29;87.35;;;36.92;;
34960;SDS011;30789;52.030;7.110;2023-02-10T10:27:03;65.13;;;32.50;;
34960;SDS011;30789;52.030;7.110;2023-02-10T10:29:37;74.85;;;34.45;;
34960;SDS011;30789;52.030;7.110;2023-02-10T10:32:08;75.47;;;34.33;;
34960;SDS011;30789;52.030;7.110;2023-02-10T10:34:36;72.13;;;33.33;;
34960;SDS011;30789;52.030;7.110;2023-02-10T10:37:08;71.18;;;32.60;;
34960;SDS011;30789;52.030;7.110;2023-02-10T10:39:38;58.97;;;30.73;;
34960;SDS011;30789;52.030;7.110;2023-02-10T10:42:08;64.80;;;31.98;;
34960;SDS011;30789;52.030;7.110;2023-02-10T10:44:40;69.43;;;33.88;;
34960;SDS011;30789;52.030;7.110;2023-02-10T10:47:11;60.17;;;30.17;;
34960;SDS011;30789;52.030;7.110;2023-02-10T10:49:38;63.85;;;30.42;;
34960;SDS011;30789;52.030;7.110;2023-02-10T10:52:05;58.53;;;26.92;;
34960;SDS011;30789;52.030;7.110;2023-02-10T10:54:41;67.20;;;29.40;;
34960;SDS011;30789;52.030;7.110;2023-02-10T10:57:09;56.55;;;26.40;;
34960;SDS011;30789;52.030;7.110;2023-02-10T10:59:38;56.55;;;25.02;;
34960;SDS011;30789;52.030;7.110;2023-02-10T11:02:12;49.58;;;26.10;;
34960;SDS011;30789;52.030;7.110;2023-02-10T11:04:38;54.13;;;25.73;;
34960;SDS011;30789;52.030;7.110;2023-02-10T11:07:09;51.25;;;25.85;;
34960;SDS011;30789;52.030;7.110;2023-02-10T11:09:36;50.70;;;25.88;;
34960;SDS011;30789;52.030;7.110;2023-02-10T11:12:06;47.42;;;22.80;;
34960;SDS011;30789;52.030;7.110;2023-02-10T11:14:36;47.65;;;25.02;;
34960;SDS011;30789;52.030;7.110;2023-02-10T11:17:16;42.67;;;22.00;;
34960;SDS011;30789;52.030;7.110;2023-02-10T11:19:53;44.63;;;25.27;;
34960;SDS011;30789;52.030;7.110;2023-02-10T11:22:20;52.95;;;27.05;;
34960;SDS011;30789;52.030;7.110;2023-02-10T11:24:48;53.67;;;27.80;;
34960;SDS011;30789;52.030;7.110;2023-02-10T11:27:14;50.30;;;23.60;;
34960;SDS011;30789;52.030;7.110;2023-02-10T11:29:45;46.22;;;22.17;;
34960;SDS011;30789;52.030;7.110;2023-02-10T11:32:15;42.50;;;22.40;;
34960;SDS011;30789;52.030;7.110;2023-02-10T11:34:43;47.40;;;22.10;;
34960;SDS011;30789;52.030;7.110;2023-02-10T11:37:12;41.03;;;20.48;;
34960;SDS011;30789;52.030;7.110;2023-02-10T11:39:39;37.55;;;19.00;;
34960;SDS011;30789;52.030;7.110;2023-02-10T11:42:07;35.42;;;18.10;;
34960;SDS011;30789;52.030;7.110;2023-02-10T11:44:34;34.65;;;17.77;;
34960;SDS011;30789;52.030;7.110;2023-02-10T11:47:01;35.15;;;17.73;;
34960;SDS011;30789;52.030;7.110;2023-02-10T11:49:28;36.42;;;18.60;;
34960;SDS011;30789;52.030;7.110;2023-02-10T11:51:57;36.17;;;18.55;;
34960;SDS011;30789;52.030;7.110;2023-02-10T11:54:25;34.95;;;18.20;;
34960;SDS011;30789;52.030;7.110;2023-02-10T11:56:53;39.13;;;18.48;;
34960;SDS011;30789;52.030;7.110;2023-02-10T11:59:55;39.47;;;19.50;;
34960;SDS011;30789;52.030;7.110;2023-02-10T12:02:28;38.00;;;19.30;;
34960;SDS011;30789;52.030;7.110;2023-02-10T12:05:09;36.05;;;18.67;;
34960;SDS011;30789;52.030;7.110;2023-02-10T12:07:43;53.03;;;25.67;;
34960;SDS011;30789;52.030;7.110;2023-02-10T12:10:17;50.92;;;24.75;;
34960;SDS011;30789;52.030;7.110;2023-02-10T12:12:47;40.55;;;19.27;;
34960;SDS011;30789;52.030;7.110;2023-02-10T12:15:20;37.30;;;18.60;;
34960;SDS011;30789;52.030;7.110;2023-02-10T12:17:51;35.90;;;17.60;;
34960;SDS011;30789;52.030;7.110;2023-02-10T12:20:34;37.05;;;19.50;;
34960;SDS011;30789;52.030;7.110;2023-02-10T12:23:08;34.38;;;16.95;;
34960;SDS011;30789;52.030;7.110;2023-02-10T12:28:04;33.45;;;17.13;;
34960;SDS011;30789;52.030;7.110;2023-02-10T12:30:35;37.28;;;18.60;;
34960;SDS011;30789;52.030;7.110;2023-02-10T12:33:05;33.38;;;17.65;;
34960;SDS011;30789;52.030;7.110;2023-02-10T12:35:38;32.70;;;18.20;;
34960;SDS011;30789;52.030;7.110;2023-02-10T12:38:14;30.17;;;16.10;;
34960;SDS011;30789;52.030;7.110;2023-02-10T12:40:45;29.67;;;16.45;;
34960;SDS011;30789;52.030;7.110;2023-02-10T12:46:03;26.88;;;15.02;;
34960;SDS011;30789;52.030;7.110;2023-02-10T12:48:39;33.13;;;17.55;;
34960;SDS011;30789;52.030;7.110;2023-02-10T12:51:19;26.42;;;14.95;;
34960;SDS011;30789;52.030;7.110;2023-02-10T12:53:49;27.60;;;14.27;;
34960;SDS011;30789;52.030;7.110;2023-02-10T12:56:18;25.35;;;12.68;;
34960;SDS011;30789;52.030;7.110;2023-02-10T12:58:46;25.98;;;13.73;;
34960;SDS011;30789;52.030;7.110;2023-02-10T13:01:16;30.30;;;14.68;;
34960;SDS011;30789;52.030;7.110;2023-02-10T13:03:44;31.75;;;16.20;;
34960;SDS011;30789;52.030;7.110;2023-02-10T13:06:17;32.10;;;16.15;;
34960;SDS011;30789;52.030;7.110;2023-02-10T13:08:47;31.95;;;16.95;;
34960;SDS011;30789;52.030;7.110;2023-02-10T13:11:14;29.00;;;16.55;;
34960;SDS011;30789;52.030;7.110;2023-02-10T13:13:42;26.95;;;15.00;;
34960;SDS011;30789;52.030;7.110;2023-02-10T13:16:09;26.02;;;14.07;;
34960;SDS011;30789;52.030;7.110;2023-02-10T13:18:39;26.48;;;13.23;;
34960;SDS011;30789;52.030;7.110;2023-02-10T13:23:37;21.35;;;11.75;;
34960;SDS011;30789;52.030;7.110;2023-02-10T13:26:10;29.37;;;14.70;;
34960;SDS011;30789;52.030;7.110;2023-02-10T13:28:43;23.55;;;13.85;;
34960;SDS011;30789;52.030;7.110;2023-02-10T13:31:15;25.20;;;13.68;;
34960;SDS011;30789;52.030;7.110;2023-02-10T13:33:50;27.13;;;13.57;;
34960;SDS011;30789;52.030;7.110;2023-02-10T13:36:20;32.67;;;14.10;;
34960;SDS011;30789;52.030;7.110;2023-02-10T13:38:57;27.90;;;13.23;;
34960;SDS011;30789;52.030;7.110;2023-02-10T13:41:24;24.77;;;12.70;;
34960;SDS011;30789;52.030;7.110;2023-02-10T13:44:23;28.88;;;12.98;;
34960;SDS011;30789;52.030;7.110;2023-02-10T13:46:52;26.85;;;12.82;;
34960;SDS011;30789;52.030;7.110;2023-02-10T13:49:21;23.73;;;13.45;;
34960;SDS011;30789;52.030;7.110;2023-02-10T13:51:48;27.23;;;13.18;;
34960;SDS011;30789;52.030;7.110;2023-02-10T13:54:25;24.83;;;12.70;;
34960;SDS011;30789;52.030;7.110;2023-02-10T13:56:52;32.20;;;16.83;;
34960;SDS011;30789;52.030;7.110;2023-02-10T13:59:27;31.17;;;14.18;;
34960;SDS011;30789;52.030;7.110;2023-02-10T14:02:01;24.92;;;12.68;;
34960;SDS011;30789;52.030;7.110;2023-02-10T14:04:36;22.77;;;11.88;;
34960;SDS011;30789;52.030;7.110;2023-02-10T14:07:12;28.50;;;13.35;;
34960;SDS011;30789;52.030;7.110;2023-02-10T14:09:39;24.52;;;13.43;;
34960;SDS011;30789;52.030;7.110;2023-02-10T14:12:18;29.75;;;13.82;;
34960;SDS011;30789;52.030;7.110;2023-02-10T14:14:48;25.38;;;13.23;;
34960;SDS011;30789;52.030;7.110;2023-02-10T14:17:17;25.40;;;12.75;;
34960;SDS011;30789;52.030;7.110;2023-02-10T14:19:47;27.92;;;13.15;;
34960;SDS011;30789;52.030;7.110;2023-02-10T14:22:21;30.90;;;13.10;;
34960;SDS011;30789;52.030;7.110;2023-02-10T14:24:47;30.05;;;13.35;;
34960;SDS011;30789;52.030;7.110;2023-02-10T14:27:14;26.15;;;13.02;;
34960;SDS011;30789;52.030;7.110;2023-02-10T14:29:43;27.63;;;13.43;;
34960;SDS011;30789;52.030;7.110;2023-02-10T14:32:11;31.17;;;14.52;;
34960;SDS011;30789;52.030;7.110;2023-02-10T14:34:39;30.38;;;13.65;;
34960;SDS011;30789;52.030;7.110;2023-02-10T14:37:14;36.85;;;14.52;;